Weather at Amchitka Air Force Base [CLOSED]

Public forecast

Using degrees Fahrenheit for public forecast. Weather courtesy of forecast.io.

Closest aviation weather report (METAR) to Amchitka Air Force Base

Closest report is Adak Airport, 155.0 nm (287.1 km) ENE. Retrieved 2022/07/04 05:35 UTC (19 minutes ago):

PADK 040535Z AUTO 25018G24KT OVC004 09/08 A3003

Closest aviation forecast (TAF) to Amchitka Air Force Base

Forecast is more than 6 hours old.

Closest forecast is Eareckson Air Station, 206.6 nm (382.7 km) WNW. Retrieved 2022/07/03 22:09 UTC (8 hours ago):

TAF PASY 032200Z 0322/0504 22009KT 8000 BR OVC001 QNH2971INS BECMG 0418/0419 19010G15KT 8000 -RA OVC002 510013 QNH2976INS TX08/0422Z TN06/0405Z LIMITED METWATCH 0322 TIL 0509